Aviation Digital Data Service (ADDS)

Output produced by METARs form (0821 UTC 28 July 2015)
found at http://aviationweather.gov/adds/metars/
 
KBFD 280705Z 2807/2906 00000KT P6SM SKC 
     FM280900 00000KT 1/2SM FG BKN003 
     FM281200 00000KT 4SM BR BKN007 
     FM281300 VRB03KT P6SM SKC